createdAt,value
2022-11-05T00:02:23.987Z,3.93
2022-11-05T00:05:29.466Z,3.60
2022-11-05T00:08:34.394Z,3.47
2022-11-05T00:11:43.186Z,3.73
2022-11-05T00:14:48.211Z,3.60
2022-11-05T00:17:35.178Z,3.23
2022-11-05T00:20:22.319Z,3.47
2022-11-05T00:23:26.875Z,4.07
2022-11-05T00:26:14.231Z,3.27
2022-11-05T00:29:02.611Z,2.90
2022-11-05T00:31:49.594Z,3.37
2022-11-05T00:34:36.202Z,3.13
2022-11-05T00:37:23.552Z,2.90
2022-11-05T00:40:11.868Z,2.73
2022-11-05T00:43:16.158Z,2.70
2022-11-05T00:46:04.669Z,2.53
2022-11-05T00:49:09.204Z,2.30
2022-11-05T00:52:17.046Z,3.27
2022-11-05T00:55:03.747Z,2.90
2022-11-05T00:57:50.945Z,2.70
2022-11-05T01:00:39.226Z,3.13
2022-11-05T01:03:28.832Z,2.40
2022-11-05T01:06:17.131Z,2.60
2022-11-05T01:09:04.059Z,2.37
2022-11-05T01:11:51.352Z,2.37
2022-11-05T01:14:38.213Z,2.60
2022-11-05T01:17:25.319Z,2.30
2022-11-05T01:20:14.346Z,2.50
2022-11-05T01:23:01.617Z,2.67
2022-11-05T01:25:48.262Z,2.63
2022-11-05T01:28:35.457Z,3.47
2022-11-05T01:31:22.464Z,2.30
2022-11-05T01:34:10.011Z,1.90
2022-11-05T01:36:58.455Z,2.20
2022-11-05T01:39:45.412Z,2.10
2022-11-05T01:42:33.322Z,2.20
2022-11-05T01:45:22.014Z,1.90
2022-11-05T01:48:09.707Z,1.97
2022-11-05T01:50:59.432Z,2.60
2022-11-05T01:53:50.160Z,1.83
2022-11-05T01:56:37.999Z,1.90
2022-11-05T01:59:26.646Z,2.10
2022-11-05T02:02:13.533Z,2.00
2022-11-05T02:05:03.209Z,2.23
2022-11-05T02:07:50.638Z,2.00
2022-11-05T02:10:38.647Z,2.00
2022-11-05T02:13:25.881Z,2.33
2022-11-05T02:16:15.980Z,2.50
2022-11-05T02:19:06.463Z,2.00
2022-11-05T02:22:04.389Z,2.07
2022-11-05T02:25:06.002Z,2.00
2022-11-05T02:28:08.187Z,2.10
2022-11-05T02:31:00.570Z,2.07
2022-11-05T02:33:56.793Z,2.00
2022-11-05T02:36:48.252Z,2.00
2022-11-05T02:39:41.037Z,2.00
2022-11-05T02:42:32.238Z,1.90
2022-11-05T02:45:23.237Z,2.07
2022-11-05T02:48:16.452Z,1.63
2022-11-05T02:51:07.258Z,1.90
2022-11-05T02:53:58.325Z,1.80
2022-11-05T02:56:46.812Z,1.70
2022-11-05T02:59:33.899Z,1.90
2022-11-05T03:02:21.110Z,1.73
2022-11-05T03:05:09.681Z,1.47
2022-11-05T03:07:59.321Z,1.67
2022-11-05T03:10:50.826Z,1.77
2022-11-05T03:13:45.535Z,1.53
2022-11-05T03:16:38.984Z,2.00
2022-11-05T03:19:30.032Z,1.70
2022-11-05T03:22:20.586Z,1.70
2022-11-05T03:25:10.025Z,1.83
2022-11-05T03:28:00.315Z,1.70
2022-11-05T03:30:47.631Z,1.63
2022-11-05T03:33:36.334Z,1.80
2022-11-05T03:36:25.034Z,1.90
2022-11-05T03:39:16.932Z,1.70
2022-11-05T03:42:06.071Z,1.90
2022-11-05T03:44:54.829Z,1.50
2022-11-05T03:47:43.680Z,1.53
2022-11-05T03:50:38.470Z,1.67
2022-11-05T03:53:29.911Z,1.80
2022-11-05T03:56:20.488Z,1.70
2022-11-05T03:59:08.530Z,1.70
2022-11-05T04:01:56.479Z,1.60
2022-11-05T04:04:43.749Z,1.60
2022-11-05T04:07:48.502Z,1.90
2022-11-05T04:10:53.134Z,1.90
2022-11-05T04:13:41.502Z,2.10
2022-11-05T04:16:45.889Z,1.80
2022-11-05T04:19:50.620Z,1.83
2022-11-05T04:22:55.678Z,2.20
2022-11-05T04:25:42.671Z,2.30
2022-11-05T04:28:49.910Z,2.40
2022-11-05T04:31:37.015Z,2.40
2022-11-05T04:34:23.991Z,2.60
2022-11-05T04:37:11.066Z,2.50
2022-11-05T04:39:57.995Z,2.60
2022-11-05T04:42:45.197Z,3.00
2022-11-05T04:45:34.262Z,2.73
2022-11-05T04:48:22.783Z,3.73
2022-11-05T04:51:09.712Z,3.30
2022-11-05T04:53:56.979Z,3.40
2022-11-05T04:56:43.946Z,3.40
2022-11-05T04:59:30.966Z,3.37
2022-11-05T05:02:18.092Z,3.73
2022-11-05T05:05:07.243Z,3.33
2022-11-05T05:07:54.271Z,3.40
2022-11-05T05:10:41.310Z,3.57
2022-11-05T05:13:28.331Z,3.27
2022-11-05T05:16:19.131Z,3.07
2022-11-05T05:19:06.168Z,2.90
2022-11-05T05:21:53.369Z,3.50
2022-11-05T05:24:40.322Z,3.80
2022-11-05T05:27:29.230Z,3.30
2022-11-05T05:30:16.337Z,3.43
2022-11-05T05:33:04.261Z,3.13
2022-11-05T05:35:51.629Z,3.90
2022-11-05T05:38:40.128Z,4.23
2022-11-05T05:41:27.185Z,3.90
2022-11-05T05:44:14.269Z,3.80
2022-11-05T05:47:01.201Z,4.20
2022-11-05T05:49:48.301Z,4.83
2022-11-05T05:52:35.283Z,5.83
2022-11-05T05:55:23.785Z,5.50
2022-11-05T05:58:10.887Z,5.63
2022-11-05T06:01:01.444Z,7.37
2022-11-05T06:03:49.040Z,6.97
2022-11-05T06:06:36.076Z,8.50
2022-11-05T06:09:23.025Z,8.50
2022-11-05T06:12:11.422Z,8.10
2022-11-05T06:14:58.155Z,9.40
2022-11-05T06:17:45.505Z,10.47
2022-11-05T06:20:32.417Z,11.03
2022-11-05T06:23:19.599Z,11.70
2022-11-05T06:26:07.689Z,11.57
2022-11-05T06:28:55.996Z,13.97
2022-11-05T06:31:42.991Z,14.37
2022-11-05T06:34:30.041Z,15.00
2022-11-05T06:37:17.191Z,15.40
2022-11-05T06:40:04.286Z,15.30
2022-11-05T06:42:53.714Z,16.07
2022-11-05T06:45:41.786Z,14.90
2022-11-05T06:48:29.011Z,16.43
2022-11-05T06:51:15.921Z,16.70
2022-11-05T06:54:02.680Z,16.27
2022-11-05T06:56:49.820Z,16.17
2022-11-05T06:59:36.941Z,15.23
2022-11-05T07:02:25.333Z,15.27
2022-11-05T07:05:12.454Z,16.23
2022-11-05T07:07:59.621Z,15.80
2022-11-05T07:10:46.605Z,15.80
2022-11-05T07:13:34.352Z,15.60
2022-11-05T07:16:21.482Z,17.60
2022-11-05T07:19:09.837Z,17.20
2022-11-05T07:21:56.483Z,15.23
2022-11-05T07:27:51.910Z,15.67
2022-11-05T07:30:39.552Z,15.63
2022-11-05T07:33:26.436Z,16.60
2022-11-05T07:36:14.894Z,16.80
2022-11-05T07:39:01.804Z,14.83
2022-11-05T07:41:48.845Z,16.87
2022-11-05T07:44:35.842Z,16.17
2022-11-05T07:47:22.734Z,15.97
2022-11-05T07:50:10.392Z,16.33
2022-11-05T07:53:02.867Z,15.23
2022-11-05T07:55:50.327Z,15.67
2022-11-05T07:58:38.299Z,14.80
2022-11-05T08:01:25.428Z,15.23
2022-11-05T08:04:12.741Z,15.53
2022-11-05T08:06:59.904Z,15.70
2022-11-05T08:09:48.307Z,15.67
2022-11-05T08:12:35.448Z,15.60
2022-11-05T08:15:22.584Z,14.77
2022-11-05T08:18:12.036Z,14.13
2022-11-05T08:20:59.233Z,11.63
2022-11-05T08:23:46.285Z,10.87
2022-11-05T08:26:34.868Z,10.03
2022-11-05T08:29:22.045Z,7.33
2022-11-05T08:32:09.261Z,5.90
2022-11-05T08:34:56.065Z,5.57
2022-11-05T08:37:43.013Z,5.87
2022-11-05T08:40:31.144Z,5.37
2022-11-05T08:43:19.503Z,5.83
2022-11-05T08:46:06.306Z,5.20
2022-11-05T08:48:53.481Z,5.33
2022-11-05T08:51:40.581Z,5.73
2022-11-05T08:54:27.721Z,5.13
2022-11-05T08:57:14.972Z,5.10
2022-11-05T09:00:03.652Z,5.13
2022-11-05T09:02:50.557Z,5.27
2022-11-05T09:05:39.163Z,5.10
2022-11-05T09:08:26.246Z,5.10
2022-11-05T09:11:13.172Z,5.27
2022-11-05T09:14:00.126Z,4.80
2022-11-05T09:16:48.398Z,4.70
2022-11-05T09:19:39.638Z,5.10
2022-11-05T09:22:27.258Z,4.63
2022-11-05T09:25:15.183Z,5.37
2022-11-05T09:28:12.266Z,5.20
2022-11-05T09:31:01.781Z,5.87
2022-11-05T09:33:50.206Z,6.60
2022-11-05T09:36:37.089Z,5.20
2022-11-05T09:39:24.359Z,5.80
2022-11-05T09:42:11.784Z,6.47
2022-11-05T09:44:59.671Z,6.33
2022-11-05T09:47:49.669Z,6.70
2022-11-05T09:50:41.163Z,7.40
2022-11-05T09:53:28.280Z,7.67
2022-11-05T09:56:21.008Z,7.60
2022-11-05T09:59:13.617Z,7.80
2022-11-05T10:02:04.167Z,7.87
2022-11-05T10:04:52.895Z,8.90
2022-11-05T10:07:44.422Z,9.43
2022-11-05T10:10:41.177Z,9.20
2022-11-05T10:13:30.740Z,10.17
2022-11-05T10:16:23.124Z,9.87
2022-11-05T10:19:11.035Z,10.43
2022-11-05T10:22:07.177Z,10.33
2022-11-05T10:24:56.732Z,10.23
2022-11-05T10:27:46.406Z,10.30
2022-11-05T10:30:33.348Z,8.30
2022-11-05T10:33:23.983Z,9.90
2022-11-05T10:36:13.096Z,10.30
2022-11-05T10:39:02.546Z,9.43
2022-11-05T10:41:57.370Z,9.30
2022-11-05T10:44:48.447Z,9.97
2022-11-05T10:47:41.478Z,9.77
2022-11-05T10:50:29.405Z,9.97
2022-11-05T10:53:17.756Z,9.60
2022-11-05T10:56:04.800Z,8.70
2022-11-05T10:58:57.007Z,8.57
2022-11-05T11:01:43.863Z,7.53
2022-11-05T11:04:36.648Z,7.67
2022-11-05T11:07:26.333Z,7.37
2022-11-05T11:10:20.570Z,7.30
2022-11-05T11:13:08.236Z,6.80
2022-11-05T11:15:57.270Z,7.73
2022-11-05T11:18:45.174Z,6.30
2022-11-05T11:21:33.666Z,6.63
2022-11-05T11:24:23.141Z,7.77
2022-11-05T11:27:11.724Z,5.97
2022-11-05T11:29:59.886Z,5.80
2022-11-05T11:32:48.708Z,6.13
2022-11-05T11:35:38.609Z,6.90
2022-11-05T11:38:31.804Z,5.97
2022-11-05T11:41:26.531Z,7.33
2022-11-05T11:44:15.213Z,7.37
2022-11-05T11:47:04.448Z,7.47
2022-11-05T11:49:54.098Z,7.07
2022-11-05T11:52:40.934Z,6.77
2022-11-05T11:55:27.982Z,7.43
2022-11-05T11:58:14.928Z,8.00
2022-11-05T12:01:04.736Z,7.50
2022-11-05T12:03:53.181Z,7.10
2022-11-05T12:06:45.309Z,7.83
2022-11-05T12:09:35.782Z,7.43
2022-11-05T12:12:24.592Z,8.47
2022-11-05T12:15:20.588Z,7.53
2022-11-05T12:18:13.257Z,6.77
2022-11-05T12:21:08.260Z,7.97
2022-11-05T12:24:02.281Z,7.70
2022-11-05T12:26:53.453Z,5.93
2022-11-05T12:29:45.520Z,5.40
2022-11-05T12:35:54.813Z,5.30
2022-11-05T12:38:51.490Z,4.80
2022-11-05T12:41:48.119Z,4.00
2022-11-05T12:45:03.046Z,3.73
2022-11-05T12:47:56.961Z,3.47
2022-11-05T12:50:46.436Z,5.03
2022-11-05T12:53:40.707Z,4.97
2022-11-05T12:56:32.239Z,5.00
2022-11-05T12:59:23.740Z,4.37
2022-11-05T13:02:14.738Z,4.33
2022-11-05T13:05:04.032Z,4.80
2022-11-05T13:07:54.495Z,4.80
2022-11-05T13:10:42.851Z,4.50
2022-11-05T13:13:33.000Z,5.50
2022-11-05T13:16:25.237Z,5.50
2022-11-05T13:19:17.329Z,5.70
2022-11-05T13:22:09.565Z,4.43
2022-11-05T13:24:57.977Z,4.80
2022-11-05T13:27:48.899Z,4.73
2022-11-05T13:30:38.525Z,4.93
2022-11-05T13:33:27.711Z,5.23
2022-11-05T13:36:33.924Z,5.37
2022-11-05T13:39:22.323Z,4.60
2022-11-05T13:42:30.976Z,4.83
2022-11-05T13:45:24.170Z,5.37
2022-11-05T13:48:26.634Z,5.90
2022-11-05T13:51:24.931Z,4.70
2022-11-05T13:54:22.471Z,4.40
2022-11-05T13:57:21.330Z,5.00
2022-11-05T14:00:12.797Z,4.60
2022-11-05T14:03:01.937Z,4.20
2022-11-05T14:05:55.028Z,4.67
2022-11-05T14:08:45.240Z,4.90
2022-11-05T14:11:33.008Z,4.93
2022-11-05T14:14:21.030Z,5.57
2022-11-05T14:17:18.541Z,5.73
2022-11-05T14:20:11.174Z,5.60
2022-11-05T14:23:48.294Z,5.63
2022-11-05T14:26:36.632Z,5.90
2022-11-05T14:29:26.670Z,5.00
2022-11-05T14:32:27.252Z,4.47
2022-11-05T14:35:35.295Z,4.73
2022-11-05T14:38:23.669Z,4.80
2022-11-05T14:41:10.876Z,4.20
2022-11-05T14:44:00.501Z,4.60
2022-11-05T14:46:49.704Z,4.37
2022-11-05T14:49:38.531Z,4.30
2022-11-05T14:52:25.667Z,4.50
2022-11-05T14:55:28.545Z,4.70
2022-11-05T14:58:29.836Z,4.80
2022-11-05T15:01:32.237Z,4.67
2022-11-05T15:04:27.750Z,17.03
2022-11-05T15:07:32.739Z,5.00
2022-11-05T15:10:20.861Z,5.73
2022-11-05T15:13:08.848Z,4.70
2022-11-05T15:15:56.249Z,4.67
2022-11-05T15:18:45.832Z,5.23
2022-11-05T15:21:36.232Z,4.67
2022-11-05T15:24:23.438Z,5.00
2022-11-05T15:27:23.851Z,5.87
2022-11-05T15:30:16.060Z,4.87
2022-11-05T15:33:10.183Z,8.40
2022-11-05T15:35:57.469Z,5.57
2022-11-05T15:39:08.224Z,4.90
2022-11-05T15:41:54.874Z,5.10
2022-11-05T15:44:42.820Z,5.10
2022-11-05T15:47:31.093Z,4.20
2022-11-05T15:50:18.193Z,4.97
2022-11-05T15:53:37.543Z,4.57
2022-11-05T15:56:26.032Z,4.87
2022-11-05T15:59:19.839Z,4.70
2022-11-05T16:02:25.504Z,4.60
2022-11-05T16:05:13.618Z,4.40
2022-11-05T16:08:01.105Z,4.70
2022-11-05T16:10:49.458Z,4.70
2022-11-05T16:13:39.248Z,4.60
2022-11-05T16:16:34.438Z,5.23
2022-11-05T16:19:40.472Z,5.60
2022-11-05T16:22:28.073Z,5.17
2022-11-05T16:25:25.566Z,4.73
2022-11-05T16:28:21.784Z,5.10
2022-11-05T16:31:10.322Z,4.77
2022-11-05T16:33:58.116Z,5.23
2022-11-05T16:36:45.079Z,4.53
2022-11-05T16:39:32.164Z,4.70
2022-11-05T16:42:38.903Z,4.30
2022-11-05T16:45:26.557Z,5.13
2022-11-05T16:48:15.592Z,4.70
2022-11-05T16:51:04.940Z,4.73
2022-11-05T16:53:51.838Z,4.87
2022-11-05T16:56:39.819Z,4.40
2022-11-05T16:59:27.421Z,4.53
2022-11-05T17:02:14.621Z,4.70
2022-11-05T17:05:03.366Z,4.80
2022-11-05T17:07:50.689Z,4.23
2022-11-05T17:10:37.923Z,4.20
2022-11-05T17:13:24.911Z,4.40
2022-11-05T17:16:12.526Z,4.57
2022-11-05T17:18:59.795Z,4.10
2022-11-05T17:21:49.996Z,3.97
2022-11-05T17:24:37.489Z,5.00
2022-11-05T17:27:24.419Z,4.80
2022-11-05T17:30:12.695Z,4.60
2022-11-05T17:32:59.429Z,5.07
2022-11-05T17:35:46.499Z,5.10
2022-11-05T17:38:34.958Z,4.97
2022-11-05T17:41:24.369Z,4.50
2022-11-05T17:44:12.597Z,5.53
2022-11-05T17:46:59.562Z,5.90
2022-11-05T17:49:46.591Z,5.27
2022-11-05T17:52:33.711Z,5.53
2022-11-05T17:55:22.046Z,6.77
2022-11-05T17:58:08.873Z,6.73
2022-11-05T18:00:55.952Z,6.47
2022-11-05T18:03:43.276Z,6.70
2022-11-05T18:06:30.099Z,6.13
2022-11-05T18:09:17.444Z,7.07
2022-11-05T18:12:07.660Z,7.00
2022-11-05T18:14:55.791Z,7.70
2022-11-05T18:17:43.212Z,7.70
2022-11-05T18:20:30.034Z,6.93
2022-11-05T18:23:16.936Z,7.80
2022-11-05T18:26:05.580Z,9.30
2022-11-05T18:28:54.182Z,8.63
2022-11-05T18:31:41.268Z,9.27
2022-11-05T18:34:28.354Z,9.67
2022-11-05T18:37:15.427Z,11.07
2022-11-05T18:40:02.529Z,8.43
2022-11-05T18:42:49.474Z,8.23
2022-11-05T18:45:37.918Z,7.83
2022-11-05T18:48:25.060Z,7.43
2022-11-05T18:51:13.049Z,6.90
2022-11-05T18:54:00.593Z,8.10
2022-11-05T18:56:47.758Z,7.43
2022-11-05T18:59:38.611Z,7.60
2022-11-05T19:02:28.041Z,8.60
2022-11-05T19:05:31.933Z,8.67
2022-11-05T19:08:19.255Z,8.60
2022-11-05T19:11:09.233Z,8.43
2022-11-05T19:13:56.218Z,8.10
2022-11-05T19:16:43.312Z,9.20
2022-11-05T19:19:31.862Z,9.47
2022-11-05T19:22:19.836Z,9.90
2022-11-05T19:25:07.846Z,9.70
2022-11-05T19:27:58.008Z,9.17
2022-11-05T19:30:45.633Z,9.00
2022-11-05T19:33:32.963Z,8.73
2022-11-05T19:36:22.777Z,9.53
2022-11-05T19:39:10.929Z,8.77
2022-11-05T19:42:03.690Z,8.90
2022-11-05T19:44:51.502Z,9.10
2022-11-05T19:47:38.859Z,8.80
2022-11-05T19:50:26.213Z,9.53
2022-11-05T19:53:14.354Z,9.50
2022-11-05T19:56:01.218Z,10.40
2022-11-05T19:58:48.792Z,9.67
2022-11-05T20:01:36.065Z,10.27
2022-11-05T20:04:23.294Z,10.57
2022-11-05T20:07:10.607Z,12.47
2022-11-05T20:09:58.969Z,10.60
2022-11-05T20:12:46.889Z,9.87
2022-11-05T20:15:33.967Z,11.90
2022-11-05T20:18:21.039Z,12.10
2022-11-05T20:21:08.965Z,11.53
2022-11-05T20:23:57.421Z,10.20
2022-11-05T20:26:48.462Z,10.97
2022-11-05T20:29:36.355Z,11.77
2022-11-05T20:32:23.165Z,10.07
2022-11-05T20:35:10.699Z,10.27
2022-11-05T20:37:57.800Z,10.10
2022-11-05T20:40:44.802Z,9.63
2022-11-05T20:43:33.289Z,9.37
2022-11-05T20:46:21.808Z,9.67
2022-11-05T20:49:08.962Z,10.37
2022-11-05T20:51:56.041Z,10.30
2022-11-05T20:54:43.098Z,10.63
2022-11-05T20:57:30.550Z,16.23
2022-11-05T21:00:19.495Z,11.40
2022-11-05T21:03:06.817Z,11.20
2022-11-05T21:05:57.206Z,12.60
2022-11-05T21:08:44.184Z,11.27
2022-11-05T21:11:52.080Z,13.17
2022-11-05T21:14:39.648Z,11.37
2022-11-05T21:17:28.389Z,11.73
2022-11-05T21:20:16.288Z,11.37
2022-11-05T21:23:03.026Z,11.03
2022-11-05T21:25:50.115Z,11.37
2022-11-05T21:28:38.891Z,11.27
2022-11-05T21:31:26.145Z,11.07
2022-11-05T21:34:17.554Z,11.27
2022-11-05T21:37:05.622Z,11.10
2022-11-05T21:39:54.171Z,11.53
2022-11-05T21:42:41.519Z,9.97
2022-11-05T21:45:28.526Z,11.43
2022-11-05T21:48:16.082Z,11.53
2022-11-05T21:51:22.368Z,12.17
2022-11-05T21:54:28.346Z,11.73
2022-11-05T21:57:34.174Z,12.60
2022-11-05T22:00:20.959Z,12.47
2022-11-05T22:03:07.892Z,10.87
2022-11-05T22:05:55.487Z,12.50
2022-11-05T22:08:43.902Z,13.00
2022-11-05T22:11:30.779Z,12.27
2022-11-05T22:14:18.022Z,11.70
2022-11-05T22:17:04.845Z,10.77
2022-11-05T22:19:52.161Z,11.03
2022-11-05T22:22:39.138Z,12.30
2022-11-05T22:25:27.276Z,11.33
2022-11-05T22:28:14.469Z,14.13
2022-11-05T22:31:01.531Z,13.17
2022-11-05T22:33:48.730Z,13.30
2022-11-05T22:36:36.365Z,13.53
2022-11-05T22:39:23.830Z,13.20
2022-11-05T22:42:11.629Z,12.20
2022-11-05T22:44:59.197Z,12.57
2022-11-05T22:47:46.508Z,13.37
2022-11-05T22:50:34.802Z,12.70
2022-11-05T22:53:21.835Z,11.97
2022-11-05T22:56:09.875Z,12.90
2022-11-05T22:58:58.822Z,13.73
2022-11-05T23:01:46.619Z,12.80
2022-11-05T23:04:33.586Z,9.73
2022-11-05T23:07:38.204Z,12.23
2022-11-05T23:10:42.632Z,14.80
2022-11-05T23:13:29.624Z,13.47
2022-11-05T23:16:35.724Z,13.33
2022-11-05T23:19:40.787Z,12.33
2022-11-05T23:22:46.699Z,12.87
2022-11-05T23:25:33.863Z,13.43
2022-11-05T23:28:21.575Z,12.50
2022-11-05T23:31:28.092Z,12.20
2022-11-05T23:34:16.460Z,12.23
2022-11-05T23:37:21.549Z,11.83
2022-11-05T23:40:10.240Z,12.10
2022-11-05T23:43:14.550Z,12.63
2022-11-05T23:46:33.626Z,12.77
2022-11-05T23:49:22.422Z,13.47
2022-11-05T23:52:09.537Z,12.70
2022-11-05T23:54:56.011Z,12.20
2022-11-05T23:57:43.188Z,12.03
